Time;durP1;ratioP1;P1;durP2;ratioP2;P2;SDS_P1;SDS_P2;PMS_P1;PMS_P2;Temp;Humidity;BMP_temperature;BMP_pressure;BME280_temperature;BME280_humidity;BME280_pressure;Samples;Min_cycle;Max_cycle;Signal;HPM_P1;HPM_P2
2023/01/03 00:01:30;;;;;;;14.27;6.18;;;;;;;5.96;100.00;102368.44;4972380;28;20073;-68
2023/01/03 00:03:57;;;;;;;14.40;6.50;;;;;;;5.94;100.00;102374.97;4973476;28;20042;-67
2023/01/03 00:06:28;;;;;;;14.32;6.00;;;;;;;5.94;100.00;102369.59;4973033;28;20541;-68
2023/01/03 00:08:55;;;;;;;11.50;5.85;;;;;;;5.90;100.00;102368.22;4974044;28;20376;-68
2023/01/03 00:12:22;;;;;;;9.05;6.15;;;;;;;5.88;100.00;102371.06;4974729;28;20098;-68
2023/01/03 00:14:10;;;;;;;11.10;6.10;;;;;;;5.90;100.00;102378.97;4973582;28;20039;-68
2023/01/03 00:16:36;;;;;;;13.90;5.88;;;;;;;5.88;100.00;102365.69;4974222;28;20544;-67
2023/01/03 00:19:08;;;;;;;13.05;6.45;;;;;;;5.86;100.00;102371.22;4973620;28;20030;-68
2023/01/03 00:21:34;;;;;;;10.80;5.97;;;;;;;5.83;100.00;102371.53;4974359;28;20118;-67
2023/01/03 00:24:00;;;;;;;12.10;6.18;;;;;;;5.79;100.00;102372.81;4972212;28;20113;-67
2023/01/03 00:26:25;;;;;;;14.10;6.00;;;;;;;5.74;100.00;102363.56;4973948;28;20498;-67
2023/01/03 00:28:50;;;;;;;10.35;6.18;;;;;;;5.76;100.00;102358.88;4972683;28;20081;-67
2023/01/03 00:31:16;;;;;;;10.55;5.70;;;;;;;5.73;100.00;102361.88;4972007;28;20031;-68
2023/01/03 00:33:41;;;;;;;13.10;6.40;;;;;;;5.72;100.00;102370.91;4970639;28;20114;-68
2023/01/03 00:36:08;;;;;;;15.18;6.78;;;;;;;5.66;100.00;102377.75;4974057;28;20065;-68
2023/01/03 00:38:34;;;;;;;14.80;6.68;;;;;;;5.64;100.00;102364.47;4973902;28;20031;-67
2023/01/03 00:41:11;;;;;;;12.88;6.43;;;;;;;5.65;100.00;102378.78;4972782;28;20050;-68
2023/01/03 00:43:38;;;;;;;14.80;6.22;;;;;;;5.59;100.00;102379.38;4971352;28;20384;-67
2023/01/03 00:46:04;;;;;;;13.85;6.55;;;;;;;5.60;100.00;102384.59;4974038;28;20567;-67
2023/01/03 00:48:30;;;;;;;11.65;6.57;;;;;;;5.56;100.00;102383.22;4973597;28;20062;-67
2023/01/03 00:50:56;;;;;;;13.38;6.60;;;;;;;5.58;100.00;102386.56;4973652;28;20390;-67
2023/01/03 00:53:21;;;;;;;13.48;6.72;;;;;;;5.57;100.00;102394.78;4973907;28;20031;-68
2023/01/03 00:55:47;;;;;;;12.10;6.90;;;;;;;5.49;100.00;102395.56;4972862;28;20045;-67
2023/01/03 00:58:13;;;;;;;14.15;6.72;;;;;;;5.50;100.00;102392.72;4972003;28;20434;-68
2023/01/03 01:00:38;;;;;;;12.93;6.82;;;;;;;5.53;100.00;102393.44;4970293;28;20031;-68
2023/01/03 01:03:04;;;;;;;11.30;6.95;;;;;;;5.50;100.00;102391.88;4973716;28;20039;-67
2023/01/03 01:05:29;;;;;;;13.27;7.10;;;;;;;5.55;100.00;102404.84;4973064;28;20041;-68
2023/01/03 01:07:55;;;;;;;12.32;6.72;;;;;;;5.54;100.00;102397.78;4973478;28;20456;-67
2023/01/03 01:10:20;;;;;;;10.38;6.45;;;;;;;5.47;100.00;102401.09;4973726;28;20485;-67
2023/01/03 01:12:46;;;;;;;13.18;7.72;;;;;;;5.45;100.00;102400.41;4971657;28;20031;-67
2023/01/03 01:15:12;;;;;;;12.70;6.75;;;;;;;5.48;100.00;102399.22;4973684;28;20031;-68
2023/01/03 01:17:39;;;;;;;11.10;6.75;;;;;;;5.43;100.00;102405.06;4973139;28;20437;-68
2023/01/03 01:20:05;;;;;;;11.85;6.60;;;;;;;5.40;100.00;102410.75;4973677;28;20117;-68
2023/01/03 01:22:32;;;;;;;14.52;7.40;;;;;;;5.41;100.00;102417.81;4972474;28;20092;-68
2023/01/03 01:24:57;;;;;;;11.95;7.43;;;;;;;5.36;100.00;102412.06;4973505;28;20491;-68
2023/01/03 01:27:22;;;;;;;11.73;6.90;;;;;;;5.34;100.00;102422.09;4972935;28;20114;-68
2023/01/03 01:29:48;;;;;;;15.80;7.70;;;;;;;5.30;100.00;102420.72;4973057;28;20030;-68
2023/01/03 01:32:13;;;;;;;16.05;7.70;;;;;;;5.30;100.00;102416.19;4972441;28;20124;-67
2023/01/03 01:34:38;;;;;;;12.05;7.40;;;;;;;5.29;100.00;102421.72;4973021;28;20453;-68
2023/01/03 01:37:04;;;;;;;12.18;7.15;;;;;;;5.33;100.00;102425.78;4973210;28;20089;-67
2023/01/03 01:39:29;;;;;;;19.17;7.40;;;;;;;5.29;100.00;102416.34;4973409;28;20159;-68
2023/01/03 01:44:51;;;;;;;12.18;7.72;;;;;;;5.23;100.00;102425.00;4972805;28;20125;-69
2023/01/03 01:47:24;;;;;;;14.18;7.55;;;;;;;5.17;100.00;102433.66;4973253;28;20073;-67
2023/01/03 01:49:55;;;;;;;12.38;7.10;;;;;;;5.09;100.00;102435.25;4973328;28;20038;-68
2023/01/03 01:52:21;;;;;;;13.07;7.80;;;;;;;5.06;100.00;102443.59;4972298;28;20039;-68
2023/01/03 01:54:50;;;;;;;12.32;7.60;;;;;;;5.06;100.00;102442.75;4974429;28;20081;-67
2023/01/03 01:57:19;;;;;;;12.55;7.82;;;;;;;5.04;100.00;102452.78;4975876;28;20050;-68
2023/01/03 01:59:45;;;;;;;12.98;7.70;;;;;;;5.02;100.00;102457.47;4976979;28;20134;-67
2023/01/03 02:02:14;;;;;;;13.02;7.15;;;;;;;4.97;100.00;102449.84;4969234;28;21872;-67
2023/01/03 02:04:39;;;;;;;13.82;7.75;;;;;;;5.03;100.00;102457.31;4973226;28;20035;-68
2023/01/03 02:07:06;;;;;;;13.95;7.70;;;;;;;4.91;100.00;102445.91;4976487;28;20531;-68
2023/01/03 02:09:33;;;;;;;12.68;7.75;;;;;;;4.97;100.00;102447.19;4976789;28;20033;-67
2023/01/03 02:15:13;;;;;;;13.27;7.22;;;;;;;4.93;100.00;102437.72;4976448;28;20557;-67
2023/01/03 02:17:39;;;;;;;12.63;7.82;;;;;;;4.92;100.00;102449.44;4974680;28;20466;-67
2023/01/03 02:20:17;;;;;;;13.60;7.70;;;;;;;4.94;100.00;102442.09;4976355;28;20122;-68
2023/01/03 02:23:21;;;;;;;11.52;7.57;;;;;;;5.02;100.00;102449.41;4975655;28;20035;-67
2023/01/03 02:26:05;;;;;;;12.05;7.65;;;;;;;4.97;100.00;102449.84;4955197;28;20391;-68
2023/01/03 02:28:49;;;;;;;12.93;7.50;;;;;;;4.95;100.00;102458.06;4976175;28;20034;-67
2023/01/03 02:31:39;;;;;;;13.07;7.47;;;;;;;4.91;100.00;102456.66;4975524;28;20059;-68
2023/01/03 02:34:20;;;;;;;17.75;7.88;;;;;;;4.84;100.00;102462.75;4974755;28;20035;-67
2023/01/03 02:37:06;;;;;;;12.43;7.55;;;;;;;4.86;100.00;102460.75;4976117;28;20100;-67
2023/01/03 02:39:43;;;;;;;16.70;8.15;;;;;;;4.78;100.00;102464.19;4975478;28;20050;-67
2023/01/03 02:45:47;;;;;;;14.57;8.27;;;;;;;4.74;100.00;102450.25;4975659;28;20135;-67
2023/01/03 02:48:18;;;;;;;12.82;7.85;;;;;;;4.68;100.00;102452.66;4975405;28;20114;-68
2023/01/03 02:50:48;;;;;;;14.60;8.30;;;;;;;4.68;100.00;102449.97;4973177;28;20026;-68
2023/01/03 02:53:20;;;;;;;14.75;7.50;;;;;;;4.64;100.00;102452.09;4975647;28;20394;-67
2023/01/03 02:55:49;;;;;;;12.15;7.57;;;;;;;4.62;100.00;102448.72;4975654;28;20094;-67
2023/01/03 02:58:20;;;;;;;13.48;7.97;;;;;;;4.61;100.00;102453.22;4974170;28;20038;-67
2023/01/03 03:00:50;;;;;;;13.07;7.90;;;;;;;4.64;100.00;102448.59;4973359;28;20050;-68
2023/01/03 03:03:20;;;;;;;12.95;8.13;;;;;;;4.61;100.00;102450.53;4974470;28;20038;-67
2023/01/03 03:05:53;;;;;;;13.55;8.35;;;;;;;4.66;100.00;102449.28;4974851;28;20462;-68
2023/01/03 03:08:19;;;;;;;13.63;7.93;;;;;;;4.67;100.00;102454.50;4974772;28;20037;-68
2023/01/03 03:13:42;;;;;;;15.02;7.90;;;;;;;4.57;100.00;102448.31;4974643;28;20121;-67
2023/01/03 03:16:46;;;;;;;12.93;7.53;;;;;;;4.63;100.00;102461.13;4975392;28;20031;-67
2023/01/03 03:24:48;;;;;;;12.93;7.50;;;;;;;4.64;100.00;102457.47;4978384;28;20433;-67
2023/01/03 03:24:55;;;;;;;13.88;7.40;;;;;;;4.58;100.00;102450.00;4975207;28;20069;-67
2023/01/03 03:30:14;;;;;;;11.32;7.25;;;;;;;4.56;100.00;102443.94;4975125;28;20126;-67
2023/01/03 03:32:41;;;;;;;13.40;7.57;;;;;;;4.57;100.00;102440.25;4975262;28;20101;-67
2023/01/03 03:35:11;;;;;;;12.40;7.15;;;;;;;4.59;100.00;102449.03;4973062;28;20118;-67
2023/01/03 03:37:38;;;;;;;15.95;7.97;;;;;;;4.57;100.00;102451.00;4974463;28;20117;-67
2023/01/03 03:46:11;;;;;;;12.18;7.25;;;;;;;4.48;100.00;102446.50;4974033;28;20118;-67
2023/01/03 03:51:34;;;;;;;15.32;7.57;;;;;;;4.48;100.00;102455.38;4974159;28;20169;-67
2023/01/03 03:54:04;;;;;;;12.65;7.72;;;;;;;4.44;100.00;102451.31;4974348;28;20085;-67
2023/01/03 03:56:32;;;;;;;15.85;7.82;;;;;;;4.47;100.00;102450.16;4972780;28;20069;-67
2023/01/03 03:59:04;;;;;;;12.52;7.40;;;;;;;4.42;100.00;102446.09;4974518;28;20038;-68
2023/01/03 04:01:30;;;;;;;13.02;7.50;;;;;;;4.37;100.00;102453.72;4972171;28;20034;-68
2023/01/03 04:04:01;;;;;;;14.68;7.50;;;;;;;4.42;100.00;102448.78;4974346;28;20030;-67
2023/01/03 04:06:49;;;;;;;11.07;7.53;;;;;;;4.46;100.00;102443.13;4973141;28;20057;-67
2023/01/03 04:09:15;;;;;;;15.07;7.97;;;;;;;4.41;100.00;102451.63;4974581;28;20284;-67
2023/01/03 04:11:40;;;;;;;12.23;7.20;;;;;;;4.40;100.00;102449.91;4974510;28;20526;-67
2023/01/03 04:14:06;;;;;;;12.48;7.22;;;;;;;4.41;100.00;102457.81;4972930;28;20126;-67
2023/01/03 04:16:32;;;;;;;10.88;6.90;;;;;;;4.41;100.00;102451.63;4973599;28;20371;-67
2023/01/03 04:18:57;;;;;;;10.23;6.97;;;;;;;4.38;100.00;102447.38;4973626;28;20027;-67
2023/01/03 04:21:22;;;;;;;12.88;7.32;;;;;;;4.40;100.00;102450.75;4973595;28;20043;-68
2023/01/03 04:23:48;;;;;;;12.30;7.15;;;;;;;4.41;100.00;102449.78;4974540;28;20054;-67
2023/01/03 04:26:13;;;;;;;15.52;7.30;;;;;;;4.44;100.00;102443.28;4973164;28;20034;-68
2023/01/03 04:28:38;;;;;;;12.18;7.25;;;;;;;4.43;100.00;102445.09;4973941;28;20037;-67
2023/01/03 04:31:04;;;;;;;12.15;7.22;;;;;;;4.39;100.00;102449.06;4973651;28;20035;-67
2023/01/03 04:33:29;;;;;;;15.80;7.65;;;;;;;4.41;100.00;102448.94;4973907;28;20391;-67
2023/01/03 04:35:54;;;;;;;12.80;8.55;;;;;;;4.38;100.00;102442.00;4971942;28;20044;-67
2023/01/03 04:38:20;;;;;;;13.98;8.00;;;;;;;4.35;100.00;102442.31;4973143;28;20030;-67
2023/01/03 04:40:45;;;;;;;14.35;8.85;;;;;;;4.35;100.00;102442.31;4973429;28;20031;-67
2023/01/03 04:45:54;;;;;;;12.57;8.63;;;;;;;4.39;100.00;102443.72;4972603;28;20061;-67
2023/01/03 04:48:20;;;;;;;17.35;9.27;;;;;;;4.44;100.00;102454.00;4973660;28;20031;-67
2023/01/03 04:50:56;;;;;;;14.82;9.45;;;;;;;4.37;100.00;102456.41;4973939;28;20023;-67
2023/01/03 04:53:23;;;;;;;20.88;9.95;;;;;;;4.38;100.00;102455.41;4972901;28;20489;-67
2023/01/03 04:55:50;;;;;;;21.02;10.45;;;;;;;4.35;100.00;102458.38;4972308;28;20386;-68
2023/01/03 04:58:16;;;;;;;16.83;10.38;;;;;;;4.32;100.00;102445.28;4972287;28;20122;-67
2023/01/03 05:00:42;;;;;;;15.20;10.18;;;;;;;4.37;100.00;102447.53;4971462;28;20782;-67
2023/01/03 05:03:07;;;;;;;16.42;10.27;;;;;;;4.39;100.00;102443.72;4973512;28;20034;-67
2023/01/03 05:05:35;;;;;;;15.38;10.23;;;;;;;4.34;100.00;102454.00;4973048;28;20039;-66
2023/01/03 05:08:06;;;;;;;17.48;10.68;;;;;;;4.35;100.00;102436.09;4972843;28;20470;-67
2023/01/03 05:10:32;;;;;;;17.73;11.07;;;;;;;4.40;100.00;102436.50;4972552;28;20479;-67
2023/01/03 05:12:58;;;;;;;19.70;10.90;;;;;;;4.40;100.00;102440.03;4972463;28;20073;-67
2023/01/03 05:15:33;;;;;;;15.85;10.57;;;;;;;4.40;100.00;102444.56;4973681;28;20038;-67
2023/01/03 05:17:58;;;;;;;16.80;11.18;;;;;;;4.41;100.00;102436.38;4973467;28;20062;-67
2023/01/03 05:25:56;;;;;;;17.42;11.23;;;;;;;4.43;100.00;102433.53;4973251;28;20102;-67
2023/01/03 05:28:22;;;;;;;16.48;10.27;;;;;;;4.43;100.00;102434.38;4973857;28;20026;-67
2023/01/03 05:30:48;;;;;;;13.35;10.55;;;;;;;4.43;100.00;102434.38;4976294;28;20038;-67
2023/01/03 05:33:14;;;;;;;17.10;10.07;;;;;;;4.44;100.00;102429.88;4976459;28;20475;-67
2023/01/03 05:35:39;;;;;;;17.17;9.73;;;;;;;4.44;100.00;102424.50;4977136;28;20041;-67
2023/01/03 05:38:04;;;;;;;13.65;9.55;;;;;;;4.44;100.00;102425.34;4975972;28;20438;-67
2023/01/03 05:40:30;;;;;;;17.35;10.07;;;;;;;4.47;100.00;102418.00;4977543;28;20062;-67
2023/01/03 05:42:56;;;;;;;12.20;8.98;;;;;;;4.48;100.00;102412.50;4976369;28;20070;-67
2023/01/03 05:45:24;;;;;;;18.77;9.65;;;;;;;4.49;100.00;102406.16;4977180;28;20082;-67
2023/01/03 05:47:50;;;;;;;14.50;8.98;;;;;;;4.50;100.00;102417.69;4977190;28;20026;-67
2023/01/03 05:50:16;;;;;;;12.70;8.70;;;;;;;4.51;100.00;102425.59;4977186;28;20038;-68
2023/01/03 05:52:41;;;;;;;13.07;8.52;;;;;;;4.56;100.00;102423.34;4975579;28;20031;-67
2023/01/03 05:55:07;;;;;;;13.25;8.70;;;;;;;4.54;100.00;102425.31;4976086;28;20034;-67
2023/01/03 05:57:32;;;;;;;12.07;8.30;;;;;;;4.59;100.00;102416.84;4976997;28;20069;-67
2023/01/03 05:59:57;;;;;;;14.68;8.60;;;;;;;4.64;100.00;102409.19;4976785;28;20042;-67
2023/01/03 06:02:23;;;;;;;15.48;8.55;;;;;;;4.66;100.00;102406.38;4973815;28;20123;-67
2023/01/03 06:04:48;;;;;;;10.93;8.25;;;;;;;4.71;100.00;102410.31;4976776;28;20046;-67
2023/01/03 06:07:13;;;;;;;12.95;8.50;;;;;;;4.74;100.00;102406.47;4975876;28;20119;-67
2023/01/03 06:09:38;;;;;;;14.32;7.90;;;;;;;4.79;100.00;102404.19;4975456;28;20026;-67
2023/01/03 06:12:04;;;;;;;11.75;7.75;;;;;;;4.79;100.00;102396.97;4974499;28;20035;-67
2023/01/03 06:14:29;;;;;;;13.68;8.23;;;;;;;4.83;100.00;102396.69;4976614;28;20105;-67
2023/01/03 06:19:38;;;;;;;10.98;7.43;;;;;;;4.90;100.00;102392.41;4976384;28;20062;-67
2023/01/03 06:22:03;;;;;;;9.65;7.22;;;;;;;4.95;100.00;102396.34;4975535;28;20467;-67
2023/01/03 06:24:28;;;;;;;13.45;7.50;;;;;;;4.97;100.00;102394.34;4975767;28;20037;-67
2023/01/03 06:26:54;;;;;;;14.52;7.05;;;;;;;4.96;100.00;102392.66;4976419;28;20121;-67
2023/01/03 06:29:19;;;;;;;12.82;7.03;;;;;;;4.99;100.00;102394.19;4974248;28;20031;-67
2023/01/03 06:31:44;;;;;;;10.48;6.93;;;;;;;5.03;100.00;102394.72;4973770;28;20445;-67
2023/01/03 06:34:10;;;;;;;12.27;7.22;;;;;;;5.06;100.00;102389.94;4975832;28;20514;-67
2023/01/03 06:36:36;;;;;;;12.93;7.28;;;;;;;5.09;100.00;102386.94;4975993;28;20130;-67
2023/01/03 06:39:02;;;;;;;12.23;7.13;;;;;;;5.08;100.00;102389.78;4972329;28;20394;-66
2023/01/03 06:41:27;;;;;;;11.02;7.07;;;;;;;5.07;100.00;102388.94;4973564;28;20038;-67
2023/01/03 06:43:53;;;;;;;12.93;7.43;;;;;;;5.08;100.00;102390.63;4975850;28;20038;-67
2023/01/03 06:54:35;;;;;;;9.75;7.53;;;;;;;5.04;100.00;102377.66;4975314;28;20141;-67
2023/01/03 06:57:00;;;;;;;12.00;7.60;;;;;;;5.05;100.00;102363.25;4975430;28;20068;-66
2023/01/03 06:59:27;;;;;;;11.73;7.70;;;;;;;5.04;100.00;102361.56;4975884;28;20063;-67
2023/01/03 07:01:53;;;;;;;8.88;7.82;;;;;;;5.03;100.00;102365.22;4972908;28;20039;-70
2023/01/03 07:04:20;;;;;;;13.65;8.65;;;;;;;5.00;100.00;102369.06;4974915;28;20043;-70
2023/01/03 07:06:46;;;;;;;12.75;7.97;;;;;;;5.05;100.00;102379.34;4975629;28;20061;-68
2023/01/03 07:09:11;;;;;;;12.73;8.00;;;;;;;5.04;100.00;102377.66;4974735;28;20379;-68
2023/01/03 07:11:38;;;;;;;10.73;7.68;;;;;;;5.05;100.00;102382.88;4975075;28;20039;-72
2023/01/03 07:14:04;;;;;;;11.20;7.82;;;;;;;5.06;100.00;102392.63;4974309;28;20035;-68
2023/01/03 07:16:33;;;;;;;12.82;7.57;;;;;;;5.08;100.00;102430.88;4975658;28;20117;-68
2023/01/03 07:18:59;;;;;;;9.27;7.07;;;;;;;5.09;100.00;102411.09;4972330;28;20031;-69
2023/01/03 07:21:27;;;;;;;12.32;7.72;;;;;;;5.11;100.00;102422.50;4973221;28;20035;-68
2023/01/03 07:23:54;;;;;;;9.93;7.32;;;;;;;5.09;100.00;102418.31;4974001;28;20422;-68
2023/01/03 07:26:19;;;;;;;15.98;8.57;;;;;;;5.12;100.00;102415.31;4974761;28;20027;-68
2023/01/03 07:28:45;;;;;;;11.13;7.95;;;;;;;5.14;100.00;102416.84;4975704;28;20037;-68
2023/01/03 07:31:10;;;;;;;13.63;8.98;;;;;;;5.18;100.00;102406.66;4982320;28;20034;-68
2023/01/03 07:33:37;;;;;;;11.30;8.57;;;;;;;5.20;100.00;102410.03;4984433;28;20042;-68
2023/01/03 07:36:06;;;;;;;13.38;8.80;;;;;;;5.22;100.00;102412.56;4971419;28;20035;-68
2023/01/03 07:38:32;;;;;;;14.00;9.43;;;;;;;5.27;100.00;102413.81;4974960;28;20521;-68
2023/01/03 07:40:58;;;;;;;12.98;8.65;;;;;;;5.27;100.00;102412.97;4975462;28;20193;-68
2023/01/03 07:43:35;;;;;;;10.35;8.15;;;;;;;5.32;100.00;102418.72;4974851;28;20026;-68
2023/01/03 07:46:06;;;;;;;12.43;9.25;;;;;;;5.32;100.00;102414.19;4974082;28;20109;-68
2023/01/03 07:48:33;;;;;;;13.27;9.13;;;;;;;5.35;100.00;102414.91;4975075;28;20105;-68
2023/01/03 07:50:58;;;;;;;13.57;10.02;;;;;;;5.33;100.00;102415.06;4974669;28;20039;-68
2023/01/03 07:53:23;;;;;;;14.07;9.27;;;;;;;5.37;100.00;102423.63;4973679;28;20093;-68
2023/01/03 07:55:49;;;;;;;12.93;9.38;;;;;;;5.36;100.00;102425.50;4974786;28;20038;-68
2023/01/03 07:58:14;;;;;;;16.77;9.65;;;;;;;5.36;100.00;102430.00;4974327;28;20061;-68
2023/01/03 08:00:40;;;;;;;12.95;9.15;;;;;;;5.37;100.00;102427.16;4970558;28;20026;-68
2023/01/03 08:03:07;;;;;;;14.63;10.32;;;;;;;5.36;100.00;102430.00;4959397;28;20463;-68
2023/01/03 08:05:33;;;;;;;14.77;10.10;;;;;;;5.37;100.00;102439.75;4975254;28;20031;-68
2023/01/03 08:07:59;;;;;;;15.10;9.70;;;;;;;5.39;100.00;102451.16;4975072;28;20026;-68
2023/01/03 08:13:18;;;;;;;16.65;10.43;;;;;;;5.41;100.00;102441.97;4974357;28;20458;-68
2023/01/03 08:15:50;;;;;;;16.38;10.57;;;;;;;5.42;100.00;102451.72;4974394;28;20023;-68
2023/01/03 08:18:19;;;;;;;13.60;10.05;;;;;;;5.41;100.00;102450.03;4973550;28;20031;-68
2023/01/03 08:20:45;;;;;;;16.42;10.60;;;;;;;5.45;100.00;102462.16;4973960;28;20117;-68
2023/01/03 08:23:10;;;;;;;18.35;11.15;;;;;;;5.44;100.00;102460.47;4972815;28;20026;-68
2023/01/03 08:25:36;;;;;;;15.82;11.18;;;;;;;5.48;100.00;102471.72;4972955;28;20530;-68
2023/01/03 08:28:02;;;;;;;14.40;10.90;;;;;;;5.52;100.00;102458.88;4974617;28;20386;-68
2023/01/03 08:30:28;;;;;;;13.82;10.88;;;;;;;5.54;100.00;102456.84;4973216;28;20101;-68
2023/01/03 08:32:55;;;;;;;17.15;11.57;;;;;;;5.58;100.00;102460.94;4972651;28;20402;-69
2023/01/03 08:35:22;;;;;;;15.48;11.20;;;;;;;5.65;100.00;102459.34;4973139;28;20041;-68
2023/01/03 08:37:49;;;;;;;14.40;11.40;;;;;;;5.65;100.00;102462.84;4972456;28;20034;-68
2023/01/03 08:40:17;;;;;;;16.95;12.05;;;;;;;5.66;100.00;102463.69;4971340;28;20474;-69
2023/01/03 08:42:43;;;;;;;16.50;12.00;;;;;;;5.71;100.00;102469.47;4974137;28;20042;-69
2023/01/03 08:45:14;;;;;;;16.52;12.05;;;;;;;5.74;100.00;102474.53;4973659;28;20078;-69
2023/01/03 08:47:41;;;;;;;17.27;12.07;;;;;;;5.77;100.00;102478.75;4973996;28;20486;-68
2023/01/03 08:50:08;;;;;;;16.38;12.40;;;;;;;5.80;100.00;102478.47;4973162;28;20077;-68
2023/01/03 08:52:33;;;;;;;18.13;13.05;;;;;;;5.83;100.00;102470.09;4973671;28;20482;-68
2023/01/03 08:54:59;;;;;;;16.35;12.30;;;;;;;5.84;100.00;102469.06;4971412;28;20033;-68
2023/01/03 08:57:24;;;;;;;18.00;13.07;;;;;;;5.89;100.00;102479.34;4973424;28;20039;-69
2023/01/03 08:59:49;;;;;;;15.13;11.93;;;;;;;5.89;100.00;102479.34;4972619;28;20400;-68
2023/01/03 09:02:15;;;;;;;20.05;12.48;;;;;;;5.92;100.00;102479.03;4969983;28;20118;-68
2023/01/03 09:04:40;;;;;;;19.63;13.02;;;;;;;5.95;100.00;102484.97;4973082;28;20027;-68
2023/01/03 09:07:05;;;;;;;17.40;12.68;;;;;;;5.95;100.00;102473.38;4972356;28;20081;-67
2023/01/03 09:09:31;;;;;;;17.15;12.63;;;;;;;6.01;100.00;102478.19;4972579;28;20042;-68
2023/01/03 09:11:56;;;;;;;22.38;13.40;;;;;;;6.02;100.00;102486.09;4973724;28;20034;-68
2023/01/03 09:14:21;;;;;;;19.35;12.48;;;;;;;6.02;100.00;102479.84;4973702;28;20038;-68
2023/01/03 09:16:47;;;;;;;19.25;13.52;;;;;;;6.09;100.00;102491.69;4972773;28;20058;-68
2023/01/03 09:19:12;;;;;;;20.10;12.68;;;;;;;6.09;100.00;102483.63;4971451;28;20058;-69
2023/01/03 09:21:37;;;;;;;19.10;12.75;;;;;;;6.12;100.00;102491.38;4973286;28;20106;-68
2023/01/03 09:24:03;;;;;;;21.75;12.30;;;;;;;6.12;100.00;102491.38;4973390;28;20034;-69
2023/01/03 09:26:29;;;;;;;17.02;12.50;;;;;;;6.10;100.00;102490.69;4971956;28;20125;-68
2023/01/03 09:28:54;;;;;;;22.23;13.77;;;;;;;6.14;100.00;102489.34;4972785;28;20046;-69
2023/01/03 09:31:20;;;;;;;19.00;12.65;;;;;;;6.18;100.00;102495.28;4973597;28;20121;-69
2023/01/03 09:33:45;;;;;;;17.23;13.07;;;;;;;6.18;100.00;102495.28;4972404;28;20030;-68
2023/01/03 09:36:10;;;;;;;24.20;12.65;;;;;;;6.23;100.00;102481.38;4973234;28;20034;-69
2023/01/03 09:38:35;;;;;;;17.13;12.07;;;;;;;6.23;100.00;102492.13;4973402;28;20023;-68
2023/01/03 09:41:07;;;;;;;21.45;12.48;;;;;;;6.26;100.00;102487.28;4972306;28;20030;-69
2023/01/03 09:43:44;;;;;;;;;;;;;;;6.38;100.00;102491.38;4973613;28;20144;-68
2023/01/03 09:46:19;;;;;;;17.45;11.00;;;;;;;6.34;100.00;102494.56;4972743;28;19918;-68
2023/01/03 09:48:47;;;;;;;19.33;12.23;;;;;;;6.36;100.00;102492.56;4971599;28;20034;-68
2023/01/03 10:03:43;;;;;;;19.35;10.77;;;;;;;6.47;100.00;102473.47;4930315;29;20075;-68
2023/01/03 10:06:20;;;;;;;18.83;10.70;;;;;;;6.50;100.00;102478.53;4932279;29;20059;-70
2023/01/03 10:09:04;;;;;;;17.20;10.18;;;;;;;6.55;100.00;102467.31;4963556;28;20045;-70
2023/01/03 10:11:45;;;;;;;17.83;10.63;;;;;;;6.55;100.00;102470.00;4954001;28;20031;-69
2023/01/03 10:14:29;;;;;;;18.98;9.98;;;;;;;6.60;100.00;102482.97;4954176;28;20035;-68
2023/01/03 10:17:08;;;;;;;14.30;9.23;;;;;;;6.62;100.00;102478.28;4956843;28;20066;-70
2023/01/03 10:19:51;;;;;;;15.70;9.27;;;;;;;6.65;100.00;102480.66;4975351;28;20105;-68
2023/01/03 10:22:23;;;;;;;16.40;9.57;;;;;;;6.65;100.00;102486.03;4976386;28;20121;-69
2023/01/03 10:25:09;;;;;;;15.05;9.63;;;;;;;6.69;100.00;102477.50;4976696;28;20038;-69
2023/01/03 10:27:41;;;;;;;13.98;8.98;;;;;;;6.74;100.00;102485.91;4976312;28;20035;-68
2023/01/03 10:30:14;;;;;;;15.10;9.27;;;;;;;6.78;100.00;102486.47;4974954;28;20122;-71
2023/01/03 10:33:17;;;;;;;14.88;9.32;;;;;;;6.86;100.00;102482.97;4974138;28;20030;-74
2023/01/03 10:35:43;;;;;;;14.07;8.63;;;;;;;6.89;100.00;102479.94;4976451;28;20061;-73
2023/01/03 10:38:08;;;;;;;11.10;8.05;;;;;;;6.87;100.00;102479.25;4976922;28;20120;-72
2023/01/03 10:40:49;;;;;;;15.43;8.00;;;;;;;6.90;100.00;102478.97;4975336;28;20054;-72
2023/01/03 10:43:18;;;;;;;14.43;7.90;;;;;;;6.90;100.00;102487.88;4972589;28;20054;-70
2023/01/03 10:46:04;;;;;;;11.75;8.23;;;;;;;6.96;100.00;102488.22;4975869;28;20445;-72
2023/01/03 10:48:38;;;;;;;14.60;8.13;;;;;;;6.98;100.00;102480.84;4973775;28;20100;-69
2023/01/03 10:51:20;;;;;;;16.92;8.15;;;;;;;7.01;100.00;102475.97;4968147;28;20027;-67
2023/01/03 10:53:46;;;;;;;12.90;7.80;;;;;;;7.03;100.00;102481.19;4974176;28;20117;-68
2023/01/03 10:56:14;;;;;;;9.90;7.65;;;;;;;7.04;100.00;102485.59;4975057;28;20034;-69
2023/01/03 10:58:40;;;;;;;12.70;7.97;;;;;;;7.05;100.00;102474.66;4975545;28;20422;-71
2023/01/03 11:01:10;;;;;;;15.40;8.45;;;;;;;7.07;100.00;102474.50;4972882;28;20023;-70
2023/01/03 11:03:38;;;;;;;14.13;8.02;;;;;;;7.08;100.00;102476.16;4974392;28;20037;-69
2023/01/03 11:06:04;;;;;;;12.75;8.25;;;;;;;7.06;100.00;102473.63;4975758;28;20030;-69
2023/01/03 11:08:47;;;;;;;17.30;8.10;;;;;;;7.09;100.00;102472.47;4975587;28;20034;-69
2023/01/03 11:11:31;;;;;;;12.60;7.13;;;;;;;7.10;100.00;102469.63;4975272;28;20038;-68
2023/01/03 11:14:08;;;;;;;14.65;7.30;;;;;;;7.13;100.00;102464.94;4974627;28;20035;-69
2023/01/03 11:16:33;;;;;;;12.82;7.30;;;;;;;7.08;100.00;102468.94;4974305;28;20042;-69
2023/01/03 11:19:04;;;;;;;12.40;7.22;;;;;;;7.10;100.00;102469.63;4975529;28;20031;-69
2023/01/03 11:21:44;;;;;;;11.15;7.00;;;;;;;7.12;100.00;102463.22;4966292;28;20059;-69
2023/01/03 11:24:51;;;;;;;15.25;7.10;;;;;;;7.14;100.00;102470.16;4955105;29;20031;-68
2023/01/03 11:27:46;;;;;;;10.95;6.93;;;;;;;7.17;100.00;102472.50;4944583;28;20038;-69
2023/01/03 11:30:28;;;;;;;12.88;7.35;;;;;;;7.14;100.00;102470.16;4960546;28;20399;-73
2023/01/03 11:33:12;;;;;;;14.30;7.20;;;;;;;7.14;100.00;102470.16;4967762;28;20031;-68
2023/01/03 11:35:52;;;;;;;16.73;7.45;;;;;;;7.13;100.00;102470.31;4973938;28;20059;-69
2023/01/03 11:38:26;;;;;;;12.77;7.43;;;;;;;7.08;100.00;102465.38;4970219;28;20031;-70
2023/01/03 11:41:23;;;;;;;15.68;7.85;;;;;;;7.06;100.00;102470.09;4977950;28;20426;-70
2023/01/03 11:44:11;;;;;;;15.70;8.20;;;;;;;7.05;100.00;102468.41;4992648;28;20030;-69
2023/01/03 11:47:07;;;;;;;15.45;8.15;;;;;;;7.05;100.00;102463.03;4980549;28;20043;-69
2023/01/03 11:49:49;;;;;;;15.43;8.70;;;;;;;6.99;100.00;102461.84;4974252;28;20041;-70
2023/01/03 11:52:32;;;;;;;18.20;8.52;;;;;;;7.00;100.00;102459.97;4955485;28;20387;-70
2023/01/03 11:55:29;;;;;;;15.45;8.77;;;;;;;7.02;100.00;102461.50;4954917;28;20471;-70
2023/01/03 11:58:04;;;;;;;14.57;8.07;;;;;;;7.05;100.00;102454.94;4955273;28;20035;-69
2023/01/03 12:00:43;;;;;;;12.20;7.90;;;;;;;7.03;100.00;102444.34;4958354;28;20035;-70
2023/01/03 12:03:14;;;;;;;12.40;6.93;;;;;;;7.06;100.00;102449.41;4974145;28;20034;-70
2023/01/03 12:05:41;;;;;;;10.80;7.13;;;;;;;7.10;100.00;102447.25;4974114;28;20058;-70
2023/01/03 12:08:36;;;;;;;9.88;7.20;;;;;;;7.16;100.00;102429.59;4972591;28;20470;-70
2023/01/03 12:11:29;;;;;;;11.88;6.40;;;;;;;7.17;100.00;102436.66;4973849;28;20037;-70
2023/01/03 12:14:15;;;;;;;8.80;5.35;;;;;;;7.23;100.00;102423.41;4943880;28;20573;-73
2023/01/03 12:16:59;;;;;;;9.25;4.85;;;;;;;7.27;100.00;102422.03;4962684;28;20053;-70
2023/01/03 12:19:40;;;;;;;9.50;4.82;;;;;;;7.36;100.00;102419.38;4974237;28;20510;-71
2023/01/03 12:22:12;;;;;;;10.23;5.13;;;;;;;7.38;100.00;102417.34;4958199;28;20030;-70
2023/01/03 12:24:45;;;;;;;9.45;4.60;;;;;;;7.43;100.00;102410.47;4971706;28;20097;-71
2023/01/03 12:27:16;;;;;;;8.98;4.50;;;;;;;7.48;100.00;102407.28;4974062;28;20023;-71
2023/01/03 12:30:05;;;;;;;10.70;4.82;;;;;;;7.53;100.00;102404.91;4973770;28;20042;-71
2023/01/03 12:32:46;;;;;;;8.52;4.65;;;;;;;7.57;100.00;102416.22;4971334;28;20114;-71